createdAt,value
2024-02-15T04:16:47.176Z,20.81
2024-02-15T04:17:47.458Z,20.76
2024-02-15T04:18:47.166Z,20.76
2024-02-15T04:19:47.167Z,20.86
2024-02-15T04:20:47.138Z,20.76
2024-02-15T04:21:47.070Z,20.85
2024-02-15T04:22:47.089Z,20.79
2024-02-15T04:23:47.101Z,20.85
2024-02-15T04:24:47.053Z,20.79
2024-02-15T04:25:47.050Z,20.86
2024-02-15T04:26:47.071Z,20.88
2024-02-15T04:27:47.048Z,20.90
2024-02-15T04:28:47.026Z,20.91
2024-02-15T04:29:47.049Z,20.90
2024-02-15T04:30:47.042Z,20.90
2024-02-15T04:31:47.087Z,20.90
2024-02-15T04:32:47.145Z,20.98
2024-02-15T04:33:47.166Z,20.96
2024-02-15T04:34:47.058Z,20.96
2024-02-15T04:35:47.020Z,21.03
2024-02-15T04:36:46.989Z,21.08
2024-02-15T04:37:46.985Z,21.03
2024-02-15T04:38:47.020Z,21.04
2024-02-15T04:39:46.980Z,21.01
2024-02-15T04:40:47.005Z,21.04
2024-02-15T04:41:46.980Z,21.06
2024-02-15T04:42:46.952Z,21.09
2024-02-15T04:43:46.983Z,21.08
2024-02-15T04:44:46.976Z,21.06
2024-02-15T04:45:46.968Z,21.08
2024-02-15T04:46:46.986Z,21.11
2024-02-15T04:47:47.895Z,21.08
2024-02-15T04:48:47.020Z,21.15
2024-02-15T04:49:46.986Z,21.18
2024-02-15T04:50:46.967Z,21.19
2024-02-15T04:51:46.926Z,21.22
2024-02-15T04:52:47.015Z,21.19
2024-02-15T04:53:46.944Z,21.19
2024-02-15T04:54:46.934Z,21.28
2024-02-15T04:55:46.913Z,21.22
2024-02-15T04:56:46.925Z,21.18
2024-02-15T04:57:46.907Z,21.22
2024-02-15T04:58:46.904Z,21.19
2024-02-15T04:59:46.926Z,21.22
2024-02-15T05:00:46.914Z,21.25
2024-02-15T05:01:46.895Z,21.28
2024-02-15T05:02:46.884Z,21.28
2024-02-15T05:03:47.012Z,21.31
2024-02-15T05:04:46.875Z,21.36
2024-02-15T05:05:46.944Z,21.34
2024-02-15T05:06:46.969Z,21.38
2024-02-15T05:07:47.023Z,21.30
2024-02-15T05:08:46.874Z,21.33
2024-02-15T05:09:46.866Z,21.40
2024-02-15T05:10:46.833Z,21.34
2024-02-15T05:11:46.856Z,21.34
2024-02-15T05:12:46.870Z,21.38
2024-02-15T05:13:46.869Z,21.37
2024-02-15T05:14:46.852Z,21.40
2024-02-15T05:15:46.841Z,21.45
2024-02-15T05:16:46.825Z,21.38
2024-02-15T05:17:46.926Z,21.41
2024-02-15T05:18:46.969Z,21.41
2024-02-15T05:19:46.896Z,21.49
2024-02-15T05:20:46.883Z,21.46
2024-02-15T05:21:46.790Z,21.46
2024-02-15T05:22:49.496Z,21.52
2024-02-15T05:23:46.886Z,21.49
2024-02-15T05:24:46.811Z,21.51
2024-02-15T05:25:46.797Z,21.45
2024-02-15T05:26:46.831Z,21.55
2024-02-15T05:27:46.805Z,21.49
2024-02-15T05:28:46.777Z,21.52
2024-02-15T05:29:46.797Z,21.48
2024-02-15T05:30:46.757Z,21.56
2024-02-15T05:31:46.768Z,21.52
2024-02-15T05:32:47.033Z,21.61
2024-02-15T05:33:46.904Z,21.46
2024-02-15T05:34:46.879Z,21.59
2024-02-15T05:35:46.834Z,21.56
2024-02-15T05:36:46.789Z,21.58
2024-02-15T05:37:46.726Z,21.52
2024-02-15T05:38:46.878Z,21.59
2024-02-15T05:39:46.720Z,21.53
2024-02-15T05:40:46.704Z,21.58
2024-02-15T05:41:46.765Z,21.59
2024-02-15T05:42:47.168Z,21.49
2024-02-15T05:43:46.769Z,21.55
2024-02-15T05:44:46.738Z,21.58
2024-02-15T05:45:46.708Z,21.49
2024-02-15T05:46:46.691Z,21.59
2024-02-15T05:47:46.755Z,21.55
2024-02-15T05:48:46.827Z,21.53
2024-02-15T05:49:46.703Z,21.58
2024-02-15T05:50:46.694Z,21.49
2024-02-15T05:51:46.716Z,21.52
2024-02-15T05:52:46.669Z,21.66
2024-02-15T05:53:46.936Z,21.56
2024-02-15T05:54:46.659Z,21.58
2024-02-15T05:55:46.719Z,21.61
2024-02-15T05:56:46.654Z,21.56
2024-02-15T05:57:46.638Z,21.66
2024-02-15T05:58:46.637Z,21.61
2024-02-15T05:59:46.725Z,21.61
2024-02-15T06:00:46.698Z,21.64
2024-02-15T06:01:46.624Z,21.64
2024-02-15T06:02:46.643Z,21.64
2024-02-15T06:03:46.660Z,21.56
2024-02-15T06:04:46.637Z,21.61
2024-02-15T06:05:46.802Z,21.64
2024-02-15T06:06:46.771Z,21.67
2024-02-15T06:07:46.694Z,21.67
2024-02-15T06:08:46.618Z,21.66
2024-02-15T06:09:46.605Z,21.61
2024-02-15T06:10:46.597Z,21.64
2024-02-15T06:11:47.055Z,21.64
2024-02-15T06:12:46.567Z,21.61
2024-02-15T06:13:46.613Z,21.66
2024-02-15T06:14:46.609Z,21.62
2024-02-15T06:15:46.572Z,21.62
2024-02-15T06:16:46.554Z,21.62
2024-02-15T06:17:46.958Z,21.70
2024-02-15T06:18:46.673Z,21.62
2024-02-15T06:19:46.683Z,21.62
2024-02-15T06:20:46.593Z,21.64
2024-02-15T06:21:46.559Z,21.61
2024-02-15T06:22:46.540Z,21.70
2024-02-15T06:23:46.642Z,21.74
2024-02-15T06:24:46.552Z,21.66
2024-02-15T06:25:46.561Z,21.62
2024-02-15T06:26:48.841Z,21.71
2024-02-15T06:27:46.524Z,21.64
2024-02-15T06:28:46.526Z,21.71
2024-02-15T06:29:46.526Z,21.66
2024-02-15T06:30:46.542Z,21.66
2024-02-15T06:31:46.505Z,21.66
2024-02-15T06:32:46.583Z,21.67
2024-02-15T06:33:46.730Z,21.67
2024-02-15T06:34:46.543Z,21.67
2024-02-15T06:35:46.508Z,21.67
2024-02-15T06:36:46.511Z,21.66
2024-02-15T06:37:46.489Z,21.67
2024-02-15T06:38:46.537Z,21.66
2024-02-15T06:39:46.563Z,21.64
2024-02-15T06:40:46.519Z,21.70
2024-02-15T06:41:47.580Z,21.68
2024-02-15T06:42:46.484Z,21.67
2024-02-15T06:43:46.489Z,21.66
2024-02-15T06:44:46.585Z,21.66
2024-02-15T06:45:46.453Z,21.66
2024-02-15T06:46:46.450Z,21.70
2024-02-15T06:47:46.515Z,21.71
2024-02-15T06:48:46.671Z,21.70
2024-02-15T06:49:46.461Z,21.74
2024-02-15T06:50:46.752Z,21.67
2024-02-15T06:51:50.061Z,21.73
2024-02-15T06:52:46.437Z,21.73
2024-02-15T06:53:46.494Z,21.76
2024-02-15T06:54:46.463Z,21.78
2024-02-15T06:57:19.140Z,21.74
2024-02-15T06:58:18.965Z,21.64
2024-02-15T06:59:18.932Z,21.74
2024-02-15T07:00:19.097Z,21.73
2024-02-15T07:01:23.625Z,21.71
2024-02-15T07:02:18.959Z,21.73
2024-02-15T07:03:18.955Z,21.74
2024-02-15T07:04:18.961Z,21.78
2024-02-15T07:05:18.960Z,21.74
2024-02-15T07:06:18.965Z,21.77
2024-02-15T07:07:18.943Z,21.76
2024-02-15T07:08:18.898Z,21.71
2024-02-15T07:09:19.074Z,21.74
2024-02-15T07:10:18.886Z,21.77
2024-02-15T07:11:18.864Z,21.77
2024-02-15T07:12:18.931Z,21.80
2024-02-15T07:13:18.879Z,21.78
2024-02-15T07:14:18.938Z,21.78
2024-02-15T07:15:18.999Z,21.74
2024-02-15T07:16:19.010Z,21.76
2024-02-15T07:17:18.841Z,21.80
2024-02-15T07:18:18.980Z,21.67
2024-02-15T07:19:19.040Z,21.73
2024-02-15T07:20:18.835Z,21.71
2024-02-15T07:21:18.936Z,21.78
2024-02-15T07:22:18.952Z,21.73
2024-02-15T07:23:18.820Z,21.83
2024-02-15T07:24:18.847Z,21.80
2024-02-15T07:25:18.820Z,21.78
2024-02-15T07:26:19.579Z,21.77
2024-02-15T07:27:18.959Z,21.82
2024-02-15T07:28:18.813Z,21.80
2024-02-15T07:29:18.876Z,21.82
2024-02-15T07:30:18.916Z,21.77
2024-02-15T07:31:18.815Z,21.78
2024-02-15T07:32:18.935Z,21.78
2024-02-15T07:33:18.961Z,21.83
2024-02-15T07:34:19.106Z,21.80
2024-02-15T07:35:18.898Z,21.85
2024-02-15T07:36:18.963Z,21.83
2024-02-15T07:37:18.839Z,21.83
2024-02-15T07:38:18.876Z,21.77
2024-02-15T07:39:19.004Z,21.77
2024-02-15T07:40:18.808Z,21.90
2024-02-15T07:41:18.797Z,21.85
2024-02-15T07:42:20.248Z,21.74
2024-02-15T07:43:18.879Z,21.89
2024-02-15T07:44:18.743Z,21.83
2024-02-15T07:45:18.937Z,21.76
2024-02-15T07:46:18.806Z,21.86
2024-02-15T07:47:18.743Z,21.90
2024-02-15T07:48:19.044Z,21.89
2024-02-15T07:49:19.231Z,21.90
2024-02-15T07:50:18.738Z,21.90
2024-02-15T07:51:18.789Z,21.90
2024-02-15T07:52:18.730Z,21.86
2024-02-15T07:53:19.776Z,21.93
2024-02-15T07:54:18.776Z,21.92
2024-02-15T07:55:18.776Z,21.93
2024-02-15T07:56:18.929Z,21.92
2024-02-15T07:57:18.815Z,21.94
2024-02-15T07:58:18.744Z,21.92
2024-02-15T07:59:18.954Z,21.94
2024-02-15T08:00:18.910Z,21.94
2024-02-15T08:01:19.536Z,21.92
2024-02-15T08:02:18.678Z,21.96
2024-02-15T08:03:19.319Z,21.93
2024-02-15T08:04:19.059Z,21.94
2024-02-15T08:05:18.772Z,21.90
2024-02-15T08:06:18.930Z,21.97
2024-02-15T08:07:18.670Z,21.96
2024-02-15T08:08:18.765Z,21.96
2024-02-15T08:09:18.725Z,22.00
2024-02-15T08:10:18.736Z,22.05
2024-02-15T08:11:18.672Z,21.97
2024-02-15T08:12:18.778Z,22.00
2024-02-15T08:13:18.722Z,22.02
2024-02-15T08:14:18.655Z,22.07
2024-02-15T08:15:18.794Z,22.02
2024-02-15T08:16:18.641Z,22.00
2024-02-15T08:17:18.716Z,22.07
2024-02-15T08:18:18.720Z,22.07
2024-02-15T08:19:19.141Z,22.04
2024-02-15T08:20:18.682Z,22.05
2024-02-15T08:21:18.815Z,22.05
2024-02-15T08:22:18.677Z,22.08
2024-02-15T08:23:18.766Z,22.11
2024-02-15T08:24:18.790Z,22.11
2024-02-15T08:25:18.571Z,22.11
2024-02-15T08:26:18.624Z,22.11
2024-02-15T08:27:18.729Z,22.08
2024-02-15T08:28:20.143Z,22.12
2024-02-15T08:29:18.673Z,22.08
2024-02-15T08:30:20.129Z,22.15
2024-02-15T08:31:18.647Z,22.08
2024-02-15T08:32:19.373Z,22.08
2024-02-15T08:33:20.811Z,22.11
2024-02-15T08:34:18.594Z,22.16
2024-02-15T08:35:18.824Z,22.20
2024-02-15T08:36:18.758Z,22.24
2024-02-15T08:37:18.645Z,22.16
2024-02-15T08:38:18.517Z,22.20
2024-02-15T08:39:18.546Z,22.22
2024-02-15T08:40:18.570Z,22.23
2024-02-15T08:41:18.641Z,22.18
2024-02-15T08:42:18.580Z,22.23
2024-02-15T08:43:18.620Z,22.14
2024-02-15T08:44:18.557Z,22.12
2024-02-15T08:45:18.588Z,22.20
2024-02-15T08:46:18.535Z,22.07
2024-02-15T08:47:18.520Z,22.23
2024-02-15T08:48:18.578Z,22.16
2024-02-15T08:49:18.533Z,22.14
2024-02-15T08:50:18.936Z,22.18
2024-02-15T08:51:21.218Z,22.26
2024-02-15T08:52:18.534Z,22.22
2024-02-15T08:53:19.409Z,22.31
2024-02-15T08:54:18.701Z,22.26
2024-02-15T08:55:18.486Z,22.18
2024-02-15T08:57:35.244Z,22.22
2024-02-15T08:58:19.396Z,22.26
2024-02-15T08:59:25.638Z,22.30
2024-02-15T09:00:18.745Z,22.27
2024-02-15T09:01:20.365Z,22.27
2024-02-15T09:02:19.153Z,22.29
2024-02-15T09:03:18.605Z,22.26
2024-02-15T09:04:18.502Z,22.26
2024-02-15T09:05:18.494Z,22.22
2024-02-15T09:06:18.439Z,22.30
2024-02-15T09:07:20.374Z,22.20
2024-02-15T09:08:19.957Z,22.29
2024-02-15T09:09:18.487Z,22.34
2024-02-15T09:10:20.194Z,22.22
2024-02-15T09:11:20.771Z,22.34
2024-02-15T09:12:18.474Z,22.26
2024-02-15T09:13:18.498Z,22.30
2024-02-15T09:14:18.375Z,22.24
2024-02-15T09:15:19.094Z,22.30
2024-02-15T09:16:18.394Z,22.23
2024-02-15T09:17:18.447Z,22.27
2024-02-15T09:18:18.567Z,22.30
2024-02-15T09:19:18.550Z,22.34
2024-02-15T09:22:51.068Z,22.34
2024-02-15T09:23:51.042Z,22.33
2024-02-15T09:26:09.082Z,22.30
2024-02-15T09:26:55.171Z,22.38
2024-02-15T09:27:58.277Z,22.33
2024-02-15T09:28:55.377Z,22.34
2024-02-15T09:29:50.966Z,22.23
2024-02-15T09:30:50.960Z,22.30
2024-02-15T09:31:50.987Z,22.27
2024-02-15T09:32:50.968Z,22.30
2024-02-15T09:33:51.530Z,22.36
2024-02-15T09:34:50.959Z,22.33
2024-02-15T09:35:53.016Z,22.34
2024-02-15T09:36:51.006Z,22.31
2024-02-15T09:37:51.412Z,22.33
2024-02-15T09:38:51.185Z,22.31
2024-02-15T09:39:50.933Z,22.31
2024-02-15T09:40:50.917Z,22.38
2024-02-15T09:41:51.003Z,22.34
2024-02-15T09:42:51.365Z,22.34
2024-02-15T09:43:51.114Z,22.34
2024-02-15T09:44:51.018Z,22.30
2024-02-15T09:45:50.946Z,22.34
2024-02-15T09:46:50.957Z,22.33
2024-02-15T09:47:51.076Z,22.41
2024-02-15T09:48:51.178Z,22.38
2024-02-15T09:49:51.843Z,22.33
2024-02-15T09:50:50.883Z,22.34
2024-02-15T09:51:50.881Z,22.36
2024-02-15T09:52:51.226Z,22.42
2024-02-15T09:53:50.978Z,22.42
2024-02-15T09:54:51.024Z,22.41
2024-02-15T09:55:52.692Z,22.38
2024-02-15T09:56:51.006Z,22.51
2024-02-15T09:57:51.617Z,22.48
2024-02-15T09:58:51.564Z,22.45
2024-02-15T09:59:50.989Z,22.42
2024-02-15T10:00:50.874Z,22.42
2024-02-15T10:01:50.808Z,22.46
2024-02-15T10:02:50.878Z,22.44
2024-02-15T10:03:50.814Z,22.49
2024-02-15T10:04:52.051Z,22.44
2024-02-15T10:05:51.032Z,22.44
2024-02-15T10:06:50.928Z,22.45
2024-02-15T10:07:50.807Z,22.44
2024-02-15T10:08:50.838Z,22.42
2024-02-15T10:09:50.946Z,22.46
2024-02-15T10:10:50.869Z,22.42
2024-02-15T10:11:50.993Z,22.51
2024-02-15T10:12:50.776Z,22.42
2024-02-15T10:13:50.774Z,22.42
2024-02-15T10:14:50.817Z,22.45
2024-02-15T10:15:50.923Z,22.41
2024-02-15T10:16:50.770Z,22.42
2024-02-15T10:17:50.877Z,22.44
2024-02-15T10:29:37.562Z,22.29
2024-02-15T10:32:09.986Z,22.27
2024-02-15T10:33:10.065Z,22.31
2024-02-15T10:34:10.167Z,22.29
2024-02-15T10:35:09.975Z,22.24
2024-02-15T10:36:10.233Z,22.29
2024-02-15T10:37:09.986Z,22.26
2024-02-15T10:38:09.962Z,22.22
2024-02-15T10:39:09.942Z,22.27
2024-02-15T10:40:09.949Z,22.20
2024-02-15T10:41:10.086Z,22.20
2024-02-15T10:42:10.012Z,22.23
2024-02-15T10:43:09.883Z,22.20
2024-02-15T10:44:09.888Z,22.23
2024-02-15T10:45:13.081Z,22.24
2024-02-15T10:46:10.058Z,22.23
2024-02-15T10:47:10.105Z,22.24
2024-02-15T10:48:10.059Z,22.24
2024-02-15T10:49:10.244Z,22.26
2024-02-15T10:50:09.865Z,22.20
2024-02-15T10:51:10.651Z,22.24
2024-02-15T10:52:09.873Z,22.24
2024-02-15T10:53:09.917Z,22.23
2024-02-15T10:54:10.078Z,22.27
2024-02-15T10:55:09.878Z,22.24
2024-02-15T10:56:10.045Z,22.26
2024-02-15T10:57:10.096Z,22.22
2024-02-15T10:58:09.821Z,22.30
2024-02-15T10:59:09.869Z,22.23
2024-02-15T11:00:09.932Z,22.30
2024-02-15T11:01:10.028Z,22.31
2024-02-15T11:02:10.536Z,22.29
2024-02-15T11:03:09.918Z,22.27
2024-02-15T11:04:10.107Z,22.24
2024-02-15T11:05:10.060Z,22.30
2024-02-15T11:06:09.985Z,22.24
2024-02-15T11:07:09.892Z,22.22
2024-02-15T11:08:10.045Z,22.23
2024-02-15T11:09:10.222Z,22.26
2024-02-15T11:10:09.975Z,22.22
2024-02-15T11:11:09.989Z,22.22
2024-02-15T11:12:10.562Z,22.15
2024-02-15T11:13:10.215Z,22.18
2024-02-15T11:14:09.769Z,22.31
2024-02-15T11:15:09.898Z,22.30
2024-02-15T11:16:09.893Z,22.24
2024-02-15T11:17:09.782Z,22.26
2024-02-15T11:18:09.934Z,22.20
2024-02-15T11:19:09.932Z,22.15
2024-02-15T11:20:09.817Z,22.26
2024-02-15T11:21:09.867Z,22.23
2024-02-15T11:22:09.810Z,22.27
2024-02-15T11:23:09.752Z,22.27
2024-02-15T11:24:09.792Z,22.24
2024-02-15T11:25:09.820Z,22.24
2024-02-15T11:26:09.804Z,22.27
2024-02-15T11:27:09.920Z,22.22
2024-02-15T11:28:09.745Z,22.27
2024-02-15T11:29:10.531Z,22.29
2024-02-15T11:30:09.894Z,22.27
2024-02-15T11:31:09.937Z,22.27
2024-02-15T11:32:09.955Z,22.27
2024-02-15T11:33:10.611Z,22.24
2024-02-15T11:34:09.902Z,22.27
2024-02-15T11:35:09.760Z,22.29
2024-02-15T11:36:09.915Z,22.29
2024-02-15T11:37:09.663Z,22.24
2024-02-15T11:38:09.756Z,22.30
2024-02-15T11:39:09.749Z,22.23
2024-02-15T11:40:09.684Z,22.23
2024-02-15T11:41:09.843Z,22.31
2024-02-15T11:42:09.678Z,22.24
2024-02-15T11:43:09.773Z,22.30
2024-02-15T11:44:09.682Z,22.34
2024-02-15T11:45:09.856Z,22.30
2024-02-15T11:46:09.705Z,22.38
2024-02-15T11:47:09.625Z,22.34
2024-02-15T11:48:09.720Z,22.34
2024-02-15T11:49:09.763Z,22.42
2024-02-15T11:50:09.668Z,22.36
2024-02-15T11:51:09.706Z,22.31
2024-02-15T11:52:09.620Z,22.36
2024-02-15T11:53:09.614Z,22.45
2024-02-15T11:54:10.031Z,22.49
2024-02-15T11:55:09.665Z,22.46
2024-02-15T11:56:09.644Z,22.48
2024-02-15T11:57:09.657Z,22.46
2024-02-15T11:58:09.683Z,22.48
2024-02-15T11:59:09.663Z,22.45
2024-02-15T12:00:09.622Z,22.48
2024-02-15T12:01:09.623Z,22.48
2024-02-15T12:02:09.691Z,22.64
2024-02-15T12:03:09.636Z,22.61
2024-02-15T12:04:09.734Z,22.66
2024-02-15T12:05:09.647Z,22.59
2024-02-15T12:06:09.837Z,22.59
2024-02-15T12:07:09.974Z,22.64
2024-02-15T12:08:09.563Z,22.57
2024-02-15T12:09:09.760Z,22.61
2024-02-15T12:10:09.754Z,22.55
2024-02-15T12:11:09.678Z,22.64
2024-02-15T12:12:09.868Z,22.66
2024-02-15T12:13:09.553Z,22.70
2024-02-15T12:14:09.729Z,22.63
2024-02-15T12:15:10.503Z,22.70
2024-02-15T12:16:10.603Z,22.71
2024-02-15T12:17:09.718Z,22.73
2024-02-15T12:18:10.566Z,22.67
2024-02-15T12:19:09.741Z,22.71
2024-02-15T12:20:09.582Z,22.71
2024-02-15T12:21:10.607Z,22.70
2024-02-15T12:22:09.534Z,22.70
2024-02-15T12:23:09.611Z,22.70
2024-02-15T12:24:09.686Z,22.69
2024-02-15T12:25:09.543Z,22.76
2024-02-15T12:26:09.486Z,22.76
2024-02-15T12:27:09.585Z,22.82
2024-02-15T12:28:09.558Z,22.78
2024-02-15T12:29:09.495Z,22.84
2024-02-15T12:30:09.517Z,22.81
2024-02-15T12:31:09.829Z,22.84
2024-02-15T12:32:09.585Z,22.69
2024-02-15T12:33:09.809Z,22.82
2024-02-15T12:34:09.824Z,22.85
2024-02-15T12:35:09.579Z,22.84
2024-02-15T12:36:09.685Z,22.85
2024-02-15T12:37:09.657Z,22.75
2024-02-15T12:38:09.676Z,22.86
2024-02-15T12:39:09.531Z,22.91
2024-02-15T12:40:09.491Z,22.94
2024-02-15T12:41:09.475Z,22.99
2024-02-15T12:42:09.666Z,23.06
2024-02-15T12:43:09.500Z,23.06
2024-02-15T12:44:09.535Z,23.12
2024-02-15T12:45:09.551Z,23.07
2024-02-15T12:46:10.801Z,23.07
2024-02-15T12:47:09.469Z,23.07
2024-02-15T12:48:09.619Z,23.06
2024-02-15T12:49:09.899Z,23.04
2024-02-15T12:50:10.269Z,23.06
2024-02-15T12:51:09.599Z,23.12
2024-02-15T12:52:09.477Z,23.09
2024-02-15T12:53:09.815Z,23.04
2024-02-15T12:54:09.921Z,23.04
2024-02-15T12:55:09.512Z,23.01
2024-02-15T12:56:09.491Z,23.07
2024-02-15T12:59:42.060Z,23.07
2024-02-15T13:00:45.436Z,23.09
2024-02-15T13:01:42.042Z,23.10
2024-02-15T13:02:43.088Z,23.09
2024-02-15T13:03:42.063Z,23.03
2024-02-15T13:04:42.085Z,23.18
2024-02-15T13:05:42.220Z,23.22
2024-02-15T13:06:45.545Z,23.24
2024-02-15T13:07:41.984Z,23.26
2024-02-15T13:08:42.116Z,23.40
2024-02-15T13:09:42.066Z,23.42
2024-02-15T13:10:45.750Z,23.42
2024-02-15T13:11:42.197Z,23.45
2024-02-15T13:12:42.190Z,23.48
2024-02-15T13:13:42.167Z,23.56
2024-02-15T13:14:42.133Z,23.50
2024-02-15T13:15:42.155Z,23.59
2024-02-15T13:16:42.025Z,23.59
2024-02-15T13:17:42.408Z,23.63
2024-02-15T13:18:42.198Z,23.67
2024-02-15T13:19:42.077Z,23.63
2024-02-15T13:20:42.168Z,23.66
2024-02-15T13:21:42.019Z,23.60
2024-02-15T13:22:41.980Z,23.62
2024-02-15T13:23:42.003Z,23.59
2024-02-15T13:24:41.976Z,23.57
2024-02-15T13:25:42.386Z,23.62
2024-02-15T13:26:42.082Z,23.59
2024-02-15T13:27:41.991Z,23.63
2024-02-15T13:28:42.042Z,23.62
2024-02-15T13:29:42.006Z,23.66
2024-02-15T13:30:41.972Z,23.59
2024-02-15T13:31:41.938Z,23.57
2024-02-15T13:32:42.184Z,23.60
2024-02-15T13:33:42.079Z,23.59
2024-02-15T13:34:41.971Z,23.50
2024-02-15T13:35:42.111Z,23.60
2024-02-15T13:36:41.941Z,23.52
2024-02-15T13:37:41.932Z,23.55
2024-02-15T13:38:41.949Z,23.52
2024-02-15T13:39:41.928Z,23.42
2024-02-15T13:40:42.061Z,23.40
2024-02-15T13:41:41.996Z,23.44
2024-02-15T13:42:41.892Z,23.42
2024-02-15T13:43:42.177Z,23.40
2024-02-15T13:44:41.944Z,23.40
2024-02-15T13:45:42.052Z,23.42
2024-02-15T13:46:41.907Z,23.37
2024-02-15T13:47:42.040Z,23.38
2024-02-15T13:48:42.290Z,23.38
2024-02-15T13:49:41.933Z,23.32
2024-02-15T13:50:42.037Z,23.42
2024-02-15T13:51:41.897Z,23.37
2024-02-15T13:52:41.927Z,23.41
2024-02-15T13:53:41.963Z,23.40
2024-02-15T13:54:41.930Z,23.40
2024-02-15T13:55:41.962Z,23.38
2024-02-15T13:56:41.967Z,23.37
2024-02-15T13:57:41.856Z,23.47
2024-02-15T13:58:41.875Z,23.47
2024-02-15T13:59:41.870Z,23.45
2024-02-15T14:00:41.913Z,23.47
2024-02-15T14:01:41.859Z,23.59
2024-02-15T14:02:41.855Z,23.50
2024-02-15T14:03:41.898Z,23.57
2024-02-15T14:04:43.791Z,23.59
2024-02-15T14:05:41.891Z,23.47
2024-02-15T14:06:42.135Z,23.50
2024-02-15T14:07:42.986Z,23.53
2024-02-15T14:08:43.297Z,23.50
2024-02-15T14:09:41.870Z,23.47
2024-02-15T14:10:41.837Z,23.47
2024-02-15T14:11:41.936Z,23.48
2024-02-15T14:12:42.049Z,23.45
2024-02-15T14:13:41.951Z,23.48
2024-02-15T14:14:41.859Z,23.44
2024-02-15T14:15:42.293Z,23.53
2024-02-15T14:16:42.833Z,23.45
2024-02-15T14:17:41.938Z,23.42
2024-02-15T14:19:41.964Z,23.48
2024-02-15T14:20:41.819Z,23.41
2024-02-15T14:21:41.796Z,23.42
2024-02-15T14:22:41.843Z,23.40
2024-02-15T14:23:41.877Z,23.44
2024-02-15T14:24:41.867Z,23.42
2024-02-15T14:25:41.858Z,23.40
2024-02-15T14:26:41.931Z,23.45
2024-02-15T14:27:41.801Z,23.40
2024-02-15T14:28:41.824Z,23.41
2024-02-15T14:29:41.811Z,23.41
2024-02-15T14:30:41.782Z,23.37
2024-02-15T14:31:41.838Z,23.40
2024-02-15T14:32:41.790Z,23.42
2024-02-15T14:33:41.886Z,23.45
2024-02-15T14:34:41.792Z,23.40
2024-02-15T14:35:41.878Z,23.44
2024-02-15T14:36:41.879Z,23.41
2024-02-15T14:37:41.794Z,23.50
2024-02-15T14:38:41.808Z,23.59
2024-02-15T14:39:42.913Z,23.59
2024-02-15T14:40:45.657Z,23.72
2024-02-15T14:41:49.544Z,23.71
2024-02-15T14:42:55.582Z,23.71
2024-02-15T14:43:41.974Z,23.75
2024-02-15T14:44:41.812Z,23.75
2024-02-15T14:45:41.761Z,23.77
2024-02-15T14:46:41.833Z,23.81
2024-02-15T14:47:41.968Z,23.72
2024-02-15T14:48:42.997Z,23.75
2024-02-15T14:49:41.766Z,23.77
2024-02-15T14:50:41.761Z,23.78
2024-02-15T14:51:41.734Z,23.77
2024-02-15T14:52:41.709Z,23.79
2024-02-15T14:53:41.792Z,23.82
2024-02-15T14:54:41.811Z,23.85
2024-02-15T14:55:42.329Z,23.85
2024-02-15T14:56:41.749Z,23.82
2024-02-15T14:57:41.694Z,23.77
2024-02-15T14:58:41.741Z,23.79
2024-02-15T14:59:41.706Z,23.74
2024-02-15T15:00:41.693Z,23.78
2024-02-15T15:01:41.704Z,23.82
2024-02-15T15:02:41.715Z,23.81
2024-02-15T15:03:41.814Z,23.79
2024-02-15T15:04:41.725Z,23.75
2024-02-15T15:05:41.696Z,23.81
2024-02-15T15:06:41.754Z,23.75
2024-02-15T15:07:41.675Z,23.67
2024-02-15T15:08:41.794Z,23.71
2024-02-15T15:09:41.711Z,23.63
2024-02-15T15:10:41.656Z,23.71
2024-02-15T15:11:41.712Z,23.63
2024-02-15T15:12:41.658Z,23.63
2024-02-15T15:13:41.657Z,23.59
2024-02-15T15:14:41.709Z,23.59
2024-02-15T15:15:41.644Z,23.53
2024-02-15T15:16:41.668Z,23.60
2024-02-15T15:17:41.693Z,23.45
2024-02-15T15:18:41.762Z,23.42
2024-02-15T15:19:41.762Z,23.42
2024-02-15T15:20:41.770Z,23.29
2024-02-15T15:21:41.656Z,23.37
2024-02-15T15:22:41.631Z,23.41
2024-02-15T15:23:41.644Z,23.38
2024-02-15T15:24:41.626Z,23.42
2024-02-15T15:25:41.661Z,23.42
2024-02-15T15:26:41.661Z,23.24
2024-02-15T15:27:41.624Z,23.25
2024-02-15T15:28:41.608Z,23.26
2024-02-15T15:29:41.660Z,23.28
2024-02-15T15:30:41.642Z,23.25
2024-02-15T15:31:41.643Z,23.22
2024-02-15T15:32:41.698Z,23.16
2024-02-15T15:35:14.215Z,23.12
2024-02-15T15:36:14.223Z,23.09
2024-02-15T15:37:14.174Z,23.07
2024-02-15T15:38:14.183Z,23.06
2024-02-15T15:39:14.265Z,23.09
2024-02-15T15:40:14.210Z,23.09
2024-02-15T15:41:14.216Z,23.12
2024-02-15T15:42:14.245Z,23.04
2024-02-15T15:43:14.143Z,23.06
2024-02-15T15:44:14.181Z,23.04
2024-02-15T15:45:14.206Z,23.06
2024-02-15T15:46:14.163Z,22.94
2024-02-15T15:47:14.142Z,23.03
2024-02-15T15:48:14.237Z,22.89
2024-02-15T15:49:14.241Z,22.94
2024-02-15T15:50:14.122Z,22.94
2024-02-15T15:51:14.198Z,22.97
2024-02-15T15:52:14.113Z,22.85
2024-02-15T15:53:14.125Z,22.94
2024-02-15T15:54:14.204Z,22.88
2024-02-15T15:55:14.135Z,22.85
2024-02-15T15:56:14.103Z,22.82
2024-02-15T15:57:14.148Z,22.88
2024-02-15T15:58:14.115Z,22.85
2024-02-15T15:59:14.118Z,22.85
2024-02-15T16:00:14.172Z,22.84
2024-02-15T16:01:14.180Z,22.78
2024-02-15T16:02:14.086Z,22.64
2024-02-15T16:03:14.125Z,22.71
2024-02-15T16:04:14.178Z,22.73
2024-02-15T16:05:14.104Z,22.66
2024-02-15T16:06:14.165Z,22.69
2024-02-15T16:07:14.096Z,22.69
2024-02-15T16:08:14.108Z,22.64
2024-02-15T16:09:14.151Z,22.67
2024-02-15T16:10:14.060Z,22.71
2024-02-15T16:11:14.073Z,22.60
2024-02-15T16:12:14.089Z,22.60
2024-02-15T16:13:14.180Z,22.63
2024-02-15T16:14:14.044Z,22.63
2024-02-15T16:15:14.089Z,22.59
2024-02-15T16:16:14.044Z,22.52
2024-02-15T16:28:47.667Z,22.36
2024-02-15T16:29:47.805Z,22.31
2024-02-15T16:30:46.630Z,22.27
2024-02-15T16:31:46.614Z,22.22
2024-02-15T16:32:46.694Z,22.30
2024-02-15T16:33:46.817Z,22.34
2024-02-15T16:34:46.645Z,22.27
2024-02-15T16:35:47.003Z,22.29
2024-02-15T16:36:46.582Z,22.22
2024-02-15T16:37:46.598Z,22.22
2024-02-15T16:38:46.710Z,22.12
2024-02-15T16:39:46.566Z,22.12
2024-02-15T16:40:46.556Z,22.11
2024-02-15T16:41:46.613Z,22.22
2024-02-15T16:42:46.546Z,22.22
2024-02-15T16:43:46.567Z,22.18
2024-02-15T16:44:46.639Z,22.09
2024-02-15T16:45:46.547Z,22.15
2024-02-15T16:46:46.526Z,22.12
2024-02-15T16:47:46.621Z,22.14
2024-02-15T16:48:46.743Z,22.09
2024-02-15T16:49:46.626Z,22.12
2024-02-15T16:50:46.663Z,22.14
2024-02-15T16:51:46.554Z,22.11
2024-02-15T16:52:46.508Z,22.12
2024-02-15T16:53:46.611Z,22.11
2024-02-15T16:54:46.531Z,22.14
2024-02-15T16:55:46.567Z,22.08
2024-02-15T16:56:46.521Z,22.08
2024-02-15T16:57:46.691Z,22.05
2024-02-15T16:58:46.536Z,22.04
2024-02-15T16:59:46.534Z,22.05
2024-02-15T17:00:46.587Z,22.08
2024-02-15T17:01:46.498Z,22.11
2024-02-15T17:02:46.670Z,22.08
2024-02-15T17:03:46.473Z,22.04
2024-02-15T17:04:46.548Z,22.07
2024-02-15T17:05:46.598Z,22.02
2024-02-15T17:06:46.597Z,21.97
2024-02-15T17:07:46.456Z,21.96
2024-02-15T17:08:46.478Z,22.05
2024-02-15T17:09:46.454Z,22.04
2024-02-15T17:10:46.493Z,22.00
2024-02-15T17:11:46.448Z,22.00
2024-02-15T17:12:46.663Z,21.96
2024-02-15T17:13:46.446Z,21.96
2024-02-15T17:14:46.476Z,21.99
2024-02-15T17:15:46.463Z,22.02
2024-02-15T17:16:46.497Z,22.00
2024-02-15T17:17:46.526Z,22.04
2024-02-15T17:18:46.506Z,22.00
2024-02-15T17:19:46.418Z,22.02
2024-02-15T17:20:46.483Z,21.99
2024-02-15T17:21:46.391Z,21.96
2024-02-15T17:22:46.408Z,21.97
2024-02-15T17:23:46.473Z,21.97
2024-02-15T17:24:46.416Z,21.94
2024-02-15T17:25:46.505Z,21.92
2024-02-15T17:26:46.594Z,21.97
2024-02-15T17:27:46.384Z,21.99
2024-02-15T17:28:46.370Z,21.94
2024-02-15T17:29:46.395Z,21.94
2024-02-15T17:30:46.469Z,21.97
2024-02-15T17:31:46.447Z,21.92
2024-02-15T17:32:46.734Z,21.97
2024-02-15T17:33:46.566Z,21.90
2024-02-15T17:34:46.431Z,21.93
2024-02-15T17:35:46.476Z,21.92
2024-02-15T17:36:46.454Z,21.90
2024-02-15T17:37:46.329Z,21.93
2024-02-15T17:38:46.543Z,21.92
2024-02-15T17:39:46.391Z,21.93
2024-02-15T17:40:46.435Z,21.92
2024-02-15T17:41:46.464Z,21.89
2024-02-15T17:42:46.418Z,21.89
2024-02-15T17:43:46.523Z,21.85